Montague, California
Current Conditions -  °F | °C
As of 3:53 PM on Friday 21 Nov 2014 (Local Time) from KSIY Reporting Station
Overcast Overcast  
Wind Chill: 43°   Ceiling: 4500
Heat Index: 45°   Visibility: 10mi
Dew Point: 41°   Wind: 5mph
Humidity: 86%   Direction: 40°NE
Pressure: 29.94"   Gusts: NA
Location:  41.73°N, 122.53°W
Report Text: KSIY 212353Z AUTO 04004KT 10SM BKN045 OVC060 07/05 A2994 RMK AO2 RAE40 SLP157 P0000 60005 T00720050 10072 20039 56012
Loading
Personal Weather Stations






























Interactive Weather Map New forecast layout! Learn more

10-Day Weather Forecast

Advertisements
Track Severe Weather on mobile